Terminal Aerodrome Forecast
Issued by NWS

Home | Current Version | Previous Version | Text Only | Print | Product List | Glossary On
Versions: 1 2 3 4 5 6 7 8 9 10 11 12 13 14 15 16 17 18 19 20 21 22 23 24 25 26 27 28 29 30
000
FTUS45 KGJT 261958 AAA
TAFTEX
TAF AMD
KTEX 261958Z 2620/2718 VRB05KT P6SM VCTS FEW035 BKN060CB OVC110
      TEMPO 2620/2624 VRB15G25KT 3SM -TSRASN SCT015 BKN030 OVC050CB
     FM270200 13005KT P6SM VCSH SCT060 OVC090
     FM270700 28004KT P6SM BKN090
     FM271100 VRB03KT P6SM SCT200=

USA.gov is the U.S. government's official web portal to all federal, state and local government web resources and services.